sensor_id;sensor_type;location;lat;lon;timestamp;temperature;humidity
31639;DHT22;18248;51.522;7.020;2023-11-18T00:02:42;3.70;99.90
31639;DHT22;18248;51.522;7.020;2023-11-18T00:05:41;3.70;99.90
31639;DHT22;18248;51.522;7.020;2023-11-18T00:08:39;3.80;99.90
31639;DHT22;18248;51.522;7.020;2023-11-18T00:11:38;3.80;99.90
31639;DHT22;18248;51.522;7.020;2023-11-18T00:14:37;3.90;99.90
31639;DHT22;18248;51.522;7.020;2023-11-18T00:17:35;3.90;99.90
31639;DHT22;18248;51.522;7.020;2023-11-18T00:20:34;4.00;99.90
31639;DHT22;18248;51.522;7.020;2023-11-18T00:23:34;4.00;99.90
31639;DHT22;18248;51.522;7.020;2023-11-18T00:26:33;4.00;99.90
31639;DHT22;18248;51.522;7.020;2023-11-18T00:29:35;4.00;99.90
31639;DHT22;18248;51.522;7.020;2023-11-18T00:32:37;3.90;99.90
31639;DHT22;18248;51.522;7.020;2023-11-18T00:35:35;4.00;99.90
31639;DHT22;18248;51.522;7.020;2023-11-18T00:38:34;3.90;99.90
31639;DHT22;18248;51.522;7.020;2023-11-18T00:41:32;3.90;99.90
31639;DHT22;18248;51.522;7.020;2023-11-18T00:44:31;3.90;99.90
31639;DHT22;18248;51.522;7.020;2023-11-18T00:47:30;3.80;99.90
31639;DHT22;18248;51.522;7.020;2023-11-18T00:50:28;3.80;99.90
31639;DHT22;18248;51.522;7.020;2023-11-18T00:53:27;3.80;99.90
31639;DHT22;18248;51.522;7.020;2023-11-18T00:56:26;3.80;99.90
31639;DHT22;18248;51.522;7.020;2023-11-18T00:59:24;3.80;99.90
31639;DHT22;18248;51.522;7.020;2023-11-18T01:02:23;3.70;99.90
31639;DHT22;18248;51.522;7.020;2023-11-18T01:05:21;3.70;99.90
31639;DHT22;18248;51.522;7.020;2023-11-18T01:08:20;3.70;99.90
31639;DHT22;18248;51.522;7.020;2023-11-18T01:11:19;3.70;99.90
31639;DHT22;18248;51.522;7.020;2023-11-18T01:14:18;3.70;99.90
31639;DHT22;18248;51.522;7.020;2023-11-18T01:17:17;3.70;99.90
31639;DHT22;18248;51.522;7.020;2023-11-18T01:20:16;3.70;99.90
31639;DHT22;18248;51.522;7.020;2023-11-18T01:23:19;3.70;99.90
31639;DHT22;18248;51.522;7.020;2023-11-18T01:26:20;3.70;99.90
31639;DHT22;18248;51.522;7.020;2023-11-18T01:29:20;3.70;99.90
31639;DHT22;18248;51.522;7.020;2023-11-18T01:32:20;3.80;99.90
31639;DHT22;18248;51.522;7.020;2023-11-18T01:35:19;3.80;99.90
31639;DHT22;18248;51.522;7.020;2023-11-18T01:38:18;3.80;99.90
31639;DHT22;18248;51.522;7.020;2023-11-18T01:41:18;3.80;99.90
31639;DHT22;18248;51.522;7.020;2023-11-18T01:44:17;3.80;99.90
31639;DHT22;18248;51.522;7.020;2023-11-18T01:47:17;3.80;99.90
31639;DHT22;18248;51.522;7.020;2023-11-18T01:50:16;3.80;99.90
31639;DHT22;18248;51.522;7.020;2023-11-18T01:53:15;3.80;99.90
31639;DHT22;18248;51.522;7.020;2023-11-18T01:56:14;3.90;99.90
31639;DHT22;18248;51.522;7.020;2023-11-18T01:59:13;3.80;99.90
31639;DHT22;18248;51.522;7.020;2023-11-18T02:02:18;3.90;99.90
31639;DHT22;18248;51.522;7.020;2023-11-18T02:05:19;3.90;99.90
31639;DHT22;18248;51.522;7.020;2023-11-18T02:08:18;3.80;99.90
31639;DHT22;18248;51.522;7.020;2023-11-18T02:11:23;3.80;99.90
31639;DHT22;18248;51.522;7.020;2023-11-18T02:14:27;3.80;99.90
31639;DHT22;18248;51.522;7.020;2023-11-18T02:17:28;3.70;99.90
31639;DHT22;18248;51.522;7.020;2023-11-18T02:20:28;3.70;99.90
31639;DHT22;18248;51.522;7.020;2023-11-18T02:23:27;3.60;99.90
31639;DHT22;18248;51.522;7.020;2023-11-18T02:26:25;3.60;99.90
31639;DHT22;18248;51.522;7.020;2023-11-18T02:29:26;3.60;99.90
31639;DHT22;18248;51.522;7.020;2023-11-18T02:32:37;3.60;99.90
31639;DHT22;18248;51.522;7.020;2023-11-18T02:35:55;3.60;99.90
31639;DHT22;18248;51.522;7.020;2023-11-18T02:38:58;3.70;99.90
31639;DHT22;18248;51.522;7.020;2023-11-18T02:42:01;3.70;99.90
31639;DHT22;18248;51.522;7.020;2023-11-18T02:45:01;3.70;99.90
31639;DHT22;18248;51.522;7.020;2023-11-18T02:48:00;3.80;99.90
31639;DHT22;18248;51.522;7.020;2023-11-18T02:50:59;3.80;99.90
31639;DHT22;18248;51.522;7.020;2023-11-18T02:53:57;3.90;99.90
31639;DHT22;18248;51.522;7.020;2023-11-18T02:56:56;3.90;99.90
31639;DHT22;18248;51.522;7.020;2023-11-18T02:59:54;3.90;99.90
31639;DHT22;18248;51.522;7.020;2023-11-18T03:02:53;3.90;99.90
31639;DHT22;18248;51.522;7.020;2023-11-18T03:05:52;3.90;99.90
31639;DHT22;18248;51.522;7.020;2023-11-18T03:08:50;4.00;99.90
31639;DHT22;18248;51.522;7.020;2023-11-18T03:11:50;4.00;99.90
31639;DHT22;18248;51.522;7.020;2023-11-18T03:14:50;4.10;99.90
31639;DHT22;18248;51.522;7.020;2023-11-18T03:17:57;4.10;99.90
31639;DHT22;18248;51.522;7.020;2023-11-18T03:20:56;4.10;99.90
31639;DHT22;18248;51.522;7.020;2023-11-18T03:23:54;4.10;99.90
31639;DHT22;18248;51.522;7.020;2023-11-18T03:26:54;4.10;99.90
31639;DHT22;18248;51.522;7.020;2023-11-18T03:29:53;4.10;99.90
31639;DHT22;18248;51.522;7.020;2023-11-18T03:32:51;4.20;99.90
31639;DHT22;18248;51.522;7.020;2023-11-18T03:35:50;4.20;99.90
31639;DHT22;18248;51.522;7.020;2023-11-18T03:38:48;4.20;99.90
31639;DHT22;18248;51.522;7.020;2023-11-18T03:41:47;4.20;99.90
31639;DHT22;18248;51.522;7.020;2023-11-18T03:44:47;4.20;99.90
31639;DHT22;18248;51.522;7.020;2023-11-18T03:47:46;4.20;99.90
31639;DHT22;18248;51.522;7.020;2023-11-18T03:50:45;4.30;99.90
31639;DHT22;18248;51.522;7.020;2023-11-18T03:53:44;4.20;99.90
31639;DHT22;18248;51.522;7.020;2023-11-18T03:56:42;4.20;99.90
31639;DHT22;18248;51.522;7.020;2023-11-18T03:59:41;4.20;99.90
31639;DHT22;18248;51.522;7.020;2023-11-18T04:02:40;4.20;99.90
31639;DHT22;18248;51.522;7.020;2023-11-18T04:05:38;4.20;99.90
31639;DHT22;18248;51.522;7.020;2023-11-18T04:08:37;4.20;99.90
31639;DHT22;18248;51.522;7.020;2023-11-18T04:11:36;4.10;99.90
31639;DHT22;18248;51.522;7.020;2023-11-18T04:14:35;4.20;99.90
31639;DHT22;18248;51.522;7.020;2023-11-18T04:17:33;4.20;99.90
31639;DHT22;18248;51.522;7.020;2023-11-18T04:20:32;4.10;99.90
31639;DHT22;18248;51.522;7.020;2023-11-18T04:23:31;4.10;99.90
31639;DHT22;18248;51.522;7.020;2023-11-18T04:26:32;4.10;99.90
31639;DHT22;18248;51.522;7.020;2023-11-18T04:29:30;4.10;99.90
31639;DHT22;18248;51.522;7.020;2023-11-18T04:32:29;4.10;99.90
31639;DHT22;18248;51.522;7.020;2023-11-18T04:35:30;4.00;99.90
31639;DHT22;18248;51.522;7.020;2023-11-18T04:38:29;4.00;99.90
31639;DHT22;18248;51.522;7.020;2023-11-18T04:41:28;4.00;99.90
31639;DHT22;18248;51.522;7.020;2023-11-18T04:44:27;4.00;99.90
31639;DHT22;18248;51.522;7.020;2023-11-18T04:47:25;4.00;99.90
31639;DHT22;18248;51.522;7.020;2023-11-18T04:50:25;4.00;99.90
31639;DHT22;18248;51.522;7.020;2023-11-18T04:53:23;4.00;99.90
31639;DHT22;18248;51.522;7.020;2023-11-18T04:56:23;4.00;99.90
31639;DHT22;18248;51.522;7.020;2023-11-18T04:59:22;4.00;99.90
31639;DHT22;18248;51.522;7.020;2023-11-18T05:02:22;4.00;99.90
31639;DHT22;18248;51.522;7.020;2023-11-18T05:05:20;4.00;99.90
31639;DHT22;18248;51.522;7.020;2023-11-18T05:08:21;3.90;99.90
31639;DHT22;18248;51.522;7.020;2023-11-18T05:11:19;4.00;99.90
31639;DHT22;18248;51.522;7.020;2023-11-18T05:14:18;4.00;99.90
31639;DHT22;18248;51.522;7.020;2023-11-18T05:17:17;3.90;99.90
31639;DHT22;18248;51.522;7.020;2023-11-18T05:20:16;4.00;99.90
31639;DHT22;18248;51.522;7.020;2023-11-18T05:23:14;4.00;99.90
31639;DHT22;18248;51.522;7.020;2023-11-18T05:26:15;4.00;99.90
31639;DHT22;18248;51.522;7.020;2023-11-18T05:29:15;4.00;99.90
31639;DHT22;18248;51.522;7.020;2023-11-18T05:32:15;4.00;99.90
31639;DHT22;18248;51.522;7.020;2023-11-18T05:35:13;4.10;99.90
31639;DHT22;18248;51.522;7.020;2023-11-18T05:38:12;4.00;99.90
31639;DHT22;18248;51.522;7.020;2023-11-18T05:41:11;4.00;99.90
31639;DHT22;18248;51.522;7.020;2023-11-18T05:44:15;4.10;99.90
31639;DHT22;18248;51.522;7.020;2023-11-18T05:47:17;4.10;99.90
31639;DHT22;18248;51.522;7.020;2023-11-18T05:50:16;4.10;99.90
31639;DHT22;18248;51.522;7.020;2023-11-18T05:53:14;4.10;99.90
31639;DHT22;18248;51.522;7.020;2023-11-18T05:56:14;4.20;99.90
31639;DHT22;18248;51.522;7.020;2023-11-18T05:59:15;4.20;99.90
31639;DHT22;18248;51.522;7.020;2023-11-18T06:02:13;4.20;99.90
31639;DHT22;18248;51.522;7.020;2023-11-18T06:05:16;4.30;99.90
31639;DHT22;18248;51.522;7.020;2023-11-18T06:08:15;4.30;99.90
31639;DHT22;18248;51.522;7.020;2023-11-18T06:11:15;4.30;99.90
31639;DHT22;18248;51.522;7.020;2023-11-18T06:14:14;4.30;99.90
31639;DHT22;18248;51.522;7.020;2023-11-18T06:17:12;4.30;99.90
31639;DHT22;18248;51.522;7.020;2023-11-18T06:20:12;4.40;99.90
31639;DHT22;18248;51.522;7.020;2023-11-18T06:23:12;4.40;99.90
31639;DHT22;18248;51.522;7.020;2023-11-18T06:26:14;4.40;99.90
31639;DHT22;18248;51.522;7.020;2023-11-18T06:29:13;4.40;99.90
31639;DHT22;18248;51.522;7.020;2023-11-18T06:32:12;4.50;99.90
31639;DHT22;18248;51.522;7.020;2023-11-18T06:35:12;4.50;99.90
31639;DHT22;18248;51.522;7.020;2023-11-18T06:38:13;4.50;99.90
31639;DHT22;18248;51.522;7.020;2023-11-18T06:41:13;4.60;99.90
31639;DHT22;18248;51.522;7.020;2023-11-18T06:44:14;4.60;99.90
31639;DHT22;18248;51.522;7.020;2023-11-18T06:47:16;4.70;99.90
31639;DHT22;18248;51.522;7.020;2023-11-18T06:50:17;4.70;99.90
31639;DHT22;18248;51.522;7.020;2023-11-18T06:53:16;4.70;99.90
31639;DHT22;18248;51.522;7.020;2023-11-18T06:56:14;4.70;99.90
31639;DHT22;18248;51.522;7.020;2023-11-18T06:59:14;4.80;99.90
31639;DHT22;18248;51.522;7.020;2023-11-18T07:02:12;4.80;99.90
31639;DHT22;18248;51.522;7.020;2023-11-18T07:05:11;4.80;99.90
31639;DHT22;18248;51.522;7.020;2023-11-18T07:08:10;4.80;99.90
31639;DHT22;18248;51.522;7.020;2023-11-18T07:11:11;4.90;99.90
31639;DHT22;18248;51.522;7.020;2023-11-18T07:14:10;4.90;99.90
31639;DHT22;18248;51.522;7.020;2023-11-18T07:17:09;4.90;99.90
31639;DHT22;18248;51.522;7.020;2023-11-18T07:20:08;4.90;99.90
31639;DHT22;18248;51.522;7.020;2023-11-18T07:23:10;4.90;99.90
31639;DHT22;18248;51.522;7.020;2023-11-18T07:26:09;5.00;99.90
31639;DHT22;18248;51.522;7.020;2023-11-18T07:29:12;5.00;99.90
31639;DHT22;18248;51.522;7.020;2023-11-18T07:32:11;5.00;99.90
31639;DHT22;18248;51.522;7.020;2023-11-18T07:35:09;5.10;99.90
31639;DHT22;18248;51.522;7.020;2023-11-18T07:38:08;5.10;99.90
31639;DHT22;18248;51.522;7.020;2023-11-18T07:41:07;5.20;99.90
31639;DHT22;18248;51.522;7.020;2023-11-18T07:44:06;5.20;99.90
31639;DHT22;18248;51.522;7.020;2023-11-18T07:47:05;5.30;99.90
31639;DHT22;18248;51.522;7.020;2023-11-18T07:50:04;5.40;99.90
31639;DHT22;18248;51.522;7.020;2023-11-18T07:53:03;5.50;99.90
31639;DHT22;18248;51.522;7.020;2023-11-18T07:56:04;5.60;99.90
31639;DHT22;18248;51.522;7.020;2023-11-18T07:59:06;5.70;99.90
31639;DHT22;18248;51.522;7.020;2023-11-18T08:02:06;5.70;99.90
31639;DHT22;18248;51.522;7.020;2023-11-18T08:05:07;5.80;99.90
31639;DHT22;18248;51.522;7.020;2023-11-18T08:08:07;5.80;99.90
31639;DHT22;18248;51.522;7.020;2023-11-18T08:11:06;5.90;99.90
31639;DHT22;18248;51.522;7.020;2023-11-18T08:14:04;6.00;99.90
31639;DHT22;18248;51.522;7.020;2023-11-18T08:17:03;6.00;99.90
31639;DHT22;18248;51.522;7.020;2023-11-18T08:20:03;6.10;99.90
31639;DHT22;18248;51.522;7.020;2023-11-18T08:23:12;6.20;99.90
31639;DHT22;18248;51.522;7.020;2023-11-18T08:26:11;6.20;99.90
31639;DHT22;18248;51.522;7.020;2023-11-18T08:29:10;6.30;99.90
31639;DHT22;18248;51.522;7.020;2023-11-18T08:32:11;6.30;99.90
31639;DHT22;18248;51.522;7.020;2023-11-18T08:35:10;6.40;99.90
31639;DHT22;18248;51.522;7.020;2023-11-18T08:38:11;6.50;99.90
31639;DHT22;18248;51.522;7.020;2023-11-18T08:41:10;6.50;99.90
31639;DHT22;18248;51.522;7.020;2023-11-18T08:44:10;6.60;99.90
31639;DHT22;18248;51.522;7.020;2023-11-18T08:47:10;6.60;99.90
31639;DHT22;18248;51.522;7.020;2023-11-18T08:50:12;6.70;99.90
31639;DHT22;18248;51.522;7.020;2023-11-18T08:53:10;6.70;99.90
31639;DHT22;18248;51.522;7.020;2023-11-18T08:56:10;6.80;99.90
31639;DHT22;18248;51.522;7.020;2023-11-18T08:59:14;6.80;99.90
31639;DHT22;18248;51.522;7.020;2023-11-18T09:02:17;6.90;99.90
31639;DHT22;18248;51.522;7.020;2023-11-18T09:05:16;6.90;99.90
31639;DHT22;18248;51.522;7.020;2023-11-18T09:08:18;6.90;99.90
31639;DHT22;18248;51.522;7.020;2023-11-18T09:11:18;6.90;99.90
31639;DHT22;18248;51.522;7.020;2023-11-18T09:14:18;7.00;99.90
31639;DHT22;18248;51.522;7.020;2023-11-18T09:17:17;7.10;99.90
31639;DHT22;18248;51.522;7.020;2023-11-18T09:20:16;7.10;99.90
31639;DHT22;18248;51.522;7.020;2023-11-18T09:23:19;7.10;99.90
31639;DHT22;18248;51.522;7.020;2023-11-18T09:26:17;7.10;99.90
31639;DHT22;18248;51.522;7.020;2023-11-18T09:29:17;7.20;99.90
31639;DHT22;18248;51.522;7.020;2023-11-18T09:32:16;7.20;99.90
31639;DHT22;18248;51.522;7.020;2023-11-18T09:35:15;7.20;99.90
31639;DHT22;18248;51.522;7.020;2023-11-18T09:38:15;7.20;99.90
31639;DHT22;18248;51.522;7.020;2023-11-18T09:41:15;7.30;99.90
31639;DHT22;18248;51.522;7.020;2023-11-18T09:44:14;7.30;99.90
31639;DHT22;18248;51.522;7.020;2023-11-18T09:47:15;7.30;99.90
31639;DHT22;18248;51.522;7.020;2023-11-18T09:50:24;7.30;99.90
31639;DHT22;18248;51.522;7.020;2023-11-18T09:53:27;7.40;99.90
31639;DHT22;18248;51.522;7.020;2023-11-18T10:00:12;7.50;99.90
31639;DHT22;18248;51.522;7.020;2023-11-18T10:03:24;7.50;99.90
31639;DHT22;18248;51.522;7.020;2023-11-18T10:06:23;7.60;99.90
31639;DHT22;18248;51.522;7.020;2023-11-18T10:09:24;7.60;99.90
31639;DHT22;18248;51.522;7.020;2023-11-18T10:12:26;7.70;99.90
31639;DHT22;18248;51.522;7.020;2023-11-18T10:15:25;7.70;99.90
31639;DHT22;18248;51.522;7.020;2023-11-18T10:18:25;7.80;99.90
31639;DHT22;18248;51.522;7.020;2023-11-18T10:21:35;7.80;99.90
31639;DHT22;18248;51.522;7.020;2023-11-18T10:24:44;7.90;99.90
31639;DHT22;18248;51.522;7.020;2023-11-18T10:27:45;7.90;99.90
31639;DHT22;18248;51.522;7.020;2023-11-18T10:30:43;8.00;99.90
31639;DHT22;18248;51.522;7.020;2023-11-18T10:33:45;8.00;99.90
31639;DHT22;18248;51.522;7.020;2023-11-18T10:37:01;8.00;99.90
31639;DHT22;18248;51.522;7.020;2023-11-18T10:40:04;8.10;99.90
31639;DHT22;18248;51.522;7.020;2023-11-18T10:43:03;8.10;99.90
31639;DHT22;18248;51.522;7.020;2023-11-18T10:46:09;8.10;99.90
31639;DHT22;18248;51.522;7.020;2023-11-18T10:49:11;8.20;99.90
31639;DHT22;18248;51.522;7.020;2023-11-18T10:52:10;8.20;99.90
31639;DHT22;18248;51.522;7.020;2023-11-18T10:55:09;8.20;99.90
31639;DHT22;18248;51.522;7.020;2023-11-18T10:58:10;8.30;99.90
31639;DHT22;18248;51.522;7.020;2023-11-18T11:01:09;8.30;99.90
31639;DHT22;18248;51.522;7.020;2023-11-18T11:04:11;8.30;99.90
31639;DHT22;18248;51.522;7.020;2023-11-18T11:07:10;8.40;99.90
31639;DHT22;18248;51.522;7.020;2023-11-18T11:10:11;8.40;99.90
31639;DHT22;18248;51.522;7.020;2023-11-18T11:13:14;8.40;99.90
31639;DHT22;18248;51.522;7.020;2023-11-18T11:16:18;8.40;99.90
31639;DHT22;18248;51.522;7.020;2023-11-18T11:19:31;8.50;99.90
31639;DHT22;18248;51.522;7.020;2023-11-18T11:22:53;8.50;99.90
31639;DHT22;18248;51.522;7.020;2023-11-18T11:26:06;8.60;99.90
31639;DHT22;18248;51.522;7.020;2023-11-18T11:29:13;8.50;99.90
31639;DHT22;18248;51.522;7.020;2023-11-18T11:32:35;8.50;99.90
31639;DHT22;18248;51.522;7.020;2023-11-18T11:35:38;8.60;99.90
31639;DHT22;18248;51.522;7.020;2023-11-18T11:38:38;8.60;99.90
31639;DHT22;18248;51.522;7.020;2023-11-18T11:41:38;8.60;99.90
31639;DHT22;18248;51.522;7.020;2023-11-18T11:44:38;8.70;99.90
31639;DHT22;18248;51.522;7.020;2023-11-18T11:47:40;8.70;99.90
31639;DHT22;18248;51.522;7.020;2023-11-18T11:54:16;8.70;99.90
31639;DHT22;18248;51.522;7.020;2023-11-18T11:57:19;8.70;99.90
31639;DHT22;18248;51.522;7.020;2023-11-18T12:00:18;8.70;99.90
31639;DHT22;18248;51.522;7.020;2023-11-18T12:03:17;8.70;99.90
31639;DHT22;18248;51.522;7.020;2023-11-18T12:06:20;8.70;99.90
31639;DHT22;18248;51.522;7.020;2023-11-18T12:09:22;8.80;99.90
31639;DHT22;18248;51.522;7.020;2023-11-18T12:12:21;8.80;99.90
31639;DHT22;18248;51.522;7.020;2023-11-18T12:15:50;8.80;99.90
31639;DHT22;18248;51.522;7.020;2023-11-18T12:19:31;8.80;99.90
31639;DHT22;18248;51.522;7.020;2023-11-18T12:23:05;8.80;99.90
31639;DHT22;18248;51.522;7.020;2023-11-18T12:26:38;8.80;99.90
31639;DHT22;18248;51.522;7.020;2023-11-18T12:29:42;8.80;99.90
31639;DHT22;18248;51.522;7.020;2023-11-18T12:36:04;8.80;99.90
31639;DHT22;18248;51.522;7.020;2023-11-18T12:39:46;8.80;99.90
31639;DHT22;18248;51.522;7.020;2023-11-18T12:43:01;8.80;99.90
31639;DHT22;18248;51.522;7.020;2023-11-18T12:49:23;8.80;99.90
31639;DHT22;18248;51.522;7.020;2023-11-18T12:52:23;8.80;99.90
31639;DHT22;18248;51.522;7.020;2023-11-18T12:55:21;8.80;99.90
31639;DHT22;18248;51.522;7.020;2023-11-18T12:58:20;8.80;99.90
31639;DHT22;18248;51.522;7.020;2023-11-18T13:01:22;8.80;99.90
31639;DHT22;18248;51.522;7.020;2023-11-18T13:04:20;8.80;99.90
31639;DHT22;18248;51.522;7.020;2023-11-18T13:07:19;8.80;99.90
31639;DHT22;18248;51.522;7.020;2023-11-18T13:10:19;8.80;99.90
31639;DHT22;18248;51.522;7.020;2023-11-18T13:13:20;8.80;99.90
31639;DHT22;18248;51.522;7.020;2023-11-18T13:16:21;8.80;99.90
31639;DHT22;18248;51.522;7.020;2023-11-18T13:19:26;8.80;99.90
31639;DHT22;18248;51.522;7.020;2023-11-18T13:22:26;8.80;99.90
31639;DHT22;18248;51.522;7.020;2023-11-18T13:25:25;8.80;99.90
31639;DHT22;18248;51.522;7.020;2023-11-18T13:28:25;8.80;99.90
31639;DHT22;18248;51.522;7.020;2023-11-18T13:31:24;8.90;99.90
31639;DHT22;18248;51.522;7.020;2023-11-18T13:34:22;8.80;99.90
31639;DHT22;18248;51.522;7.020;2023-11-18T13:37:22;8.90;99.90
31639;DHT22;18248;51.522;7.020;2023-11-18T13:40:21;8.90;99.90
31639;DHT22;18248;51.522;7.020;2023-11-18T13:43:19;8.90;99.90
31639;DHT22;18248;51.522;7.020;2023-11-18T13:46:21;8.90;99.90
31639;DHT22;18248;51.522;7.020;2023-11-18T13:49:20;8.90;99.90
31639;DHT22;18248;51.522;7.020;2023-11-18T13:52:19;9.00;99.90
31639;DHT22;18248;51.522;7.020;2023-11-18T13:55:19;9.00;99.90
31639;DHT22;18248;51.522;7.020;2023-11-18T13:58:26;9.00;99.90
31639;DHT22;18248;51.522;7.020;2023-11-18T14:01:26;9.00;99.90
31639;DHT22;18248;51.522;7.020;2023-11-18T14:04:27;9.00;99.90
31639;DHT22;18248;51.522;7.020;2023-11-18T14:07:27;9.10;99.90
31639;DHT22;18248;51.522;7.020;2023-11-18T14:10:26;9.10;99.90
31639;DHT22;18248;51.522;7.020;2023-11-18T14:13:24;9.10;99.90
31639;DHT22;18248;51.522;7.020;2023-11-18T14:16:27;9.10;99.90
31639;DHT22;18248;51.522;7.020;2023-11-18T14:19:26;9.10;99.90
31639;DHT22;18248;51.522;7.020;2023-11-18T14:22:26;9.00;99.90
31639;DHT22;18248;51.522;7.020;2023-11-18T14:25:24;9.00;99.90
31639;DHT22;18248;51.522;7.020;2023-11-18T14:28:23;9.00;99.90
31639;DHT22;18248;51.522;7.020;2023-11-18T14:31:25;9.00;99.90
31639;DHT22;18248;51.522;7.020;2023-11-18T14:34:23;9.00;99.90
31639;DHT22;18248;51.522;7.020;2023-11-18T14:37:22;8.90;99.90
31639;DHT22;18248;51.522;7.020;2023-11-18T14:40:21;8.90;99.90
31639;DHT22;18248;51.522;7.020;2023-11-18T14:43:22;8.90;99.90
31639;DHT22;18248;51.522;7.020;2023-11-18T14:46:20;8.90;99.90
31639;DHT22;18248;51.522;7.020;2023-11-18T14:49:19;8.80;99.90
31639;DHT22;18248;51.522;7.020;2023-11-18T14:52:18;8.80;99.90
31639;DHT22;18248;51.522;7.020;2023-11-18T14:55:16;8.80;99.90
31639;DHT22;18248;51.522;7.020;2023-11-18T14:58:15;8.80;99.90
31639;DHT22;18248;51.522;7.020;2023-11-18T15:01:14;8.80;99.90
31639;DHT22;18248;51.522;7.020;2023-11-18T15:04:13;8.80;99.90
31639;DHT22;18248;51.522;7.020;2023-11-18T15:07:11;8.80;99.90
31639;DHT22;18248;51.522;7.020;2023-11-18T15:10:10;8.70;99.90
31639;DHT22;18248;51.522;7.020;2023-11-18T15:13:09;8.80;99.90
31639;DHT22;18248;51.522;7.020;2023-11-18T15:16:13;8.70;99.90
31639;DHT22;18248;51.522;7.020;2023-11-18T15:19:11;8.70;99.90
31639;DHT22;18248;51.522;7.020;2023-11-18T15:22:10;8.70;99.90
31639;DHT22;18248;51.522;7.020;2023-11-18T15:25:09;8.70;99.90
31639;DHT22;18248;51.522;7.020;2023-11-18T15:28:10;8.70;99.90
31639;DHT22;18248;51.522;7.020;2023-11-18T15:31:08;8.60;99.90
31639;DHT22;18248;51.522;7.020;2023-11-18T15:34:07;8.70;99.90
31639;DHT22;18248;51.522;7.020;2023-11-18T15:37:06;8.70;99.90
31639;DHT22;18248;51.522;7.020;2023-11-18T15:40:09;8.70;99.90
31639;DHT22;18248;51.522;7.020;2023-11-18T15:43:09;8.70;99.90
31639;DHT22;18248;51.522;7.020;2023-11-18T15:46:10;8.70;99.90
31639;DHT22;18248;51.522;7.020;2023-11-18T15:49:09;8.70;99.90
31639;DHT22;18248;51.522;7.020;2023-11-18T15:52:07;8.60;99.90
31639;DHT22;18248;51.522;7.020;2023-11-18T15:55:09;8.60;99.90
31639;DHT22;18248;51.522;7.020;2023-11-18T15:58:13;8.60;99.90
31639;DHT22;18248;51.522;7.020;2023-11-18T16:01:12;8.60;99.90
31639;DHT22;18248;51.522;7.020;2023-11-18T16:04:10;8.60;99.90
31639;DHT22;18248;51.522;7.020;2023-11-18T16:07:09;8.60;99.90
31639;DHT22;18248;51.522;7.020;2023-11-18T16:10:08;8.60;99.90
31639;DHT22;18248;51.522;7.020;2023-11-18T16:13:06;8.60;99.90
31639;DHT22;18248;51.522;7.020;2023-11-18T16:16:05;8.60;99.90
31639;DHT22;18248;51.522;7.020;2023-11-18T16:19:04;8.60;99.90
31639;DHT22;18248;51.522;7.020;2023-11-18T16:22:04;8.60;99.90
31639;DHT22;18248;51.522;7.020;2023-11-18T16:25:03;8.60;99.90
31639;DHT22;18248;51.522;7.020;2023-11-18T16:28:02;8.60;99.90
31639;DHT22;18248;51.522;7.020;2023-11-18T16:31:02;8.70;99.90
31639;DHT22;18248;51.522;7.020;2023-11-18T16:34:03;8.70;99.90
31639;DHT22;18248;51.522;7.020;2023-11-18T16:37:02;8.70;99.90
31639;DHT22;18248;51.522;7.020;2023-11-18T16:40:00;8.70;99.90
31639;DHT22;18248;51.522;7.020;2023-11-18T16:42:59;8.60;99.90
31639;DHT22;18248;51.522;7.020;2023-11-18T16:45:58;8.70;99.90
31639;DHT22;18248;51.522;7.020;2023-11-18T16:48:56;8.70;99.90
31639;DHT22;18248;51.522;7.020;2023-11-18T16:51:55;8.70;99.90
31639;DHT22;18248;51.522;7.020;2023-11-18T16:54:53;8.70;99.90
31639;DHT22;18248;51.522;7.020;2023-11-18T16:57:53;8.80;99.90
31639;DHT22;18248;51.522;7.020;2023-11-18T17:00:52;8.80;99.90
31639;DHT22;18248;51.522;7.020;2023-11-18T17:03:51;8.80;99.90
31639;DHT22;18248;51.522;7.020;2023-11-18T17:06:50;8.80;99.90
31639;DHT22;18248;51.522;7.020;2023-11-18T17:09:49;8.80;99.90
31639;DHT22;18248;51.522;7.020;2023-11-18T17:12:49;8.90;99.90
31639;DHT22;18248;51.522;7.020;2023-11-18T17:15:47;8.90;99.90
31639;DHT22;18248;51.522;7.020;2023-11-18T17:18:46;8.90;99.90
31639;DHT22;18248;51.522;7.020;2023-11-18T17:21:44;8.90;99.90
31639;DHT22;18248;51.522;7.020;2023-11-18T17:24:43;8.90;99.90
31639;DHT22;18248;51.522;7.020;2023-11-18T17:27:43;8.90;99.90
31639;DHT22;18248;51.522;7.020;2023-11-18T17:30:42;8.90;99.90
31639;DHT22;18248;51.522;7.020;2023-11-18T17:33:40;8.90;99.90
31639;DHT22;18248;51.522;7.020;2023-11-18T17:36:39;9.00;99.90
31639;DHT22;18248;51.522;7.020;2023-11-18T17:39:37;9.00;99.90
31639;DHT22;18248;51.522;7.020;2023-11-18T17:42:37;9.00;99.90
31639;DHT22;18248;51.522;7.020;2023-11-18T17:45:36;9.00;99.90
31639;DHT22;18248;51.522;7.020;2023-11-18T17:48:35;9.00;99.90
31639;DHT22;18248;51.522;7.020;2023-11-18T17:51:33;9.00;99.90
31639;DHT22;18248;51.522;7.020;2023-11-18T17:54:32;9.00;99.90
31639;DHT22;18248;51.522;7.020;2023-11-18T17:57:30;9.10;99.90
31639;DHT22;18248;51.522;7.020;2023-11-18T18:00:29;9.10;99.90
31639;DHT22;18248;51.522;7.020;2023-11-18T18:03:28;9.10;99.90
31639;DHT22;18248;51.522;7.020;2023-11-18T18:06:26;9.10;99.90
31639;DHT22;18248;51.522;7.020;2023-11-18T18:09:25;9.10;99.90
31639;DHT22;18248;51.522;7.020;2023-11-18T18:12:23;9.20;99.90
31639;DHT22;18248;51.522;7.020;2023-11-18T18:15:22;9.20;99.90
31639;DHT22;18248;51.522;7.020;2023-11-18T18:18:24;9.20;99.90
31639;DHT22;18248;51.522;7.020;2023-11-18T18:21:22;9.20;99.90
31639;DHT22;18248;51.522;7.020;2023-11-18T18:24:21;9.20;99.90
31639;DHT22;18248;51.522;7.020;2023-11-18T18:27:20;9.30;99.90
31639;DHT22;18248;51.522;7.020;2023-11-18T18:30:20;9.30;99.90
31639;DHT22;18248;51.522;7.020;2023-11-18T18:33:19;9.30;99.90
31639;DHT22;18248;51.522;7.020;2023-11-18T18:36:18;9.30;99.90
31639;DHT22;18248;51.522;7.020;2023-11-18T18:39:17;9.40;99.90
31639;DHT22;18248;51.522;7.020;2023-11-18T18:42:15;9.40;99.90
31639;DHT22;18248;51.522;7.020;2023-11-18T18:45:14;9.40;99.90
31639;DHT22;18248;51.522;7.020;2023-11-18T18:48:13;9.40;99.90
31639;DHT22;18248;51.522;7.020;2023-11-18T18:51:14;9.40;99.90
31639;DHT22;18248;51.522;7.020;2023-11-18T18:54:13;9.40;99.90
31639;DHT22;18248;51.522;7.020;2023-11-18T18:57:11;9.50;99.90
31639;DHT22;18248;51.522;7.020;2023-11-18T19:00:10;9.40;99.90
31639;DHT22;18248;51.522;7.020;2023-11-18T19:03:10;9.40;99.90
31639;DHT22;18248;51.522;7.020;2023-11-18T19:06:10;9.50;99.90
31639;DHT22;18248;51.522;7.020;2023-11-18T19:09:10;9.40;99.90
31639;DHT22;18248;51.522;7.020;2023-11-18T19:12:09;9.50;99.90
31639;DHT22;18248;51.522;7.020;2023-11-18T19:15:08;9.40;99.90
31639;DHT22;18248;51.522;7.020;2023-11-18T19:18:07;9.50;99.90
31639;DHT22;18248;51.522;7.020;2023-11-18T19:21:06;9.50;99.90
31639;DHT22;18248;51.522;7.020;2023-11-18T19:24:06;9.50;99.90
31639;DHT22;18248;51.522;7.020;2023-11-18T19:27:06;9.50;99.90
31639;DHT22;18248;51.522;7.020;2023-11-18T19:30:09;9.50;99.90
31639;DHT22;18248;51.522;7.020;2023-11-18T19:33:10;9.60;99.90